sensor_id;sensor_type;location;lat;lon;timestamp;pressure;altitude;pressure_sealevel;temperature;humidity
44825;BME280;30542;47.928;2.138;2023-04-08T00:04:17;100935.91;;;18.91;48.71
44825;BME280;30542;47.928;2.138;2023-04-08T00:09:18;100928.13;;;18.90;48.81
44825;BME280;30542;47.928;2.138;2023-04-08T00:14:18;100927.31;;;18.89;48.63
44825;BME280;30542;47.928;2.138;2023-04-08T00:19:18;100932.91;;;18.87;49.09
44825;BME280;30542;47.928;2.138;2023-04-08T00:24:19;100932.09;;;18.87;49.02
44825;BME280;30542;47.928;2.138;2023-04-08T00:29:19;100941.13;;;18.86;48.71
44825;BME280;30542;47.928;2.138;2023-04-08T00:34:20;100932.56;;;18.84;48.71
44825;BME280;30542;47.928;2.138;2023-04-08T00:39:20;100939.19;;;18.81;49.10
44825;BME280;30542;47.928;2.138;2023-04-08T00:44:20;100932.50;;;18.79;48.92
44825;BME280;30542;47.928;2.138;2023-04-08T00:49:21;100929.25;;;18.77;48.97
44825;BME280;30542;47.928;2.138;2023-04-08T00:54:21;100936.69;;;18.75;48.56
44825;BME280;30542;47.928;2.138;2023-04-08T00:59:22;100937.16;;;18.72;48.97
44825;BME280;30542;47.928;2.138;2023-04-08T01:04:55;100938.22;;;18.71;48.52
44825;BME280;30542;47.928;2.138;2023-04-08T01:10:01;100944.78;;;18.68;48.86
44825;BME280;30542;47.928;2.138;2023-04-08T01:15:04;100939.47;;;18.68;48.82
44825;BME280;30542;47.928;2.138;2023-04-08T01:20:06;100940.25;;;18.69;48.52
44825;BME280;30542;47.928;2.138;2023-04-08T01:25:15;100934.59;;;18.65;48.73
44825;BME280;30542;47.928;2.138;2023-04-08T01:30:17;100936.78;;;18.68;48.85
44825;BME280;30542;47.928;2.138;2023-04-08T01:35:18;100935.97;;;18.68;48.42
44825;BME280;30542;47.928;2.138;2023-04-08T01:40:18;100937.03;;;18.67;48.38
44825;BME280;30542;47.928;2.138;2023-04-08T01:45:19;100938.31;;;18.64;48.38
44825;BME280;30542;47.928;2.138;2023-04-08T01:50:21;100939.72;;;18.67;48.44
44825;BME280;30542;47.928;2.138;2023-04-08T01:55:22;100931.72;;;18.67;48.05
44825;BME280;30542;47.928;2.138;2023-04-08T02:00:27;100934.59;;;18.65;48.34
44825;BME280;30542;47.928;2.138;2023-04-08T02:05:27;100928.44;;;18.64;47.93
44825;BME280;30542;47.928;2.138;2023-04-08T02:10:28;100925.22;;;18.62;48.25
44825;BME280;30542;47.928;2.138;2023-04-08T02:15:33;100923.59;;;18.61;48.32
44825;BME280;30542;47.928;2.138;2023-04-08T02:20:37;100928.63;;;18.58;47.96
44825;BME280;30542;47.928;2.138;2023-04-08T02:25:42;100930.44;;;18.57;47.85
44825;BME280;30542;47.928;2.138;2023-04-08T02:30:49;100930.94;;;18.54;48.08
44825;BME280;30542;47.928;2.138;2023-04-08T02:35:50;100934.09;;;18.51;47.79
44825;BME280;30542;47.928;2.138;2023-04-08T02:40:53;100932.47;;;18.50;48.26
44825;BME280;30542;47.928;2.138;2023-04-08T02:45:54;100934.56;;;18.48;48.33
44825;BME280;30542;47.928;2.138;2023-04-08T02:50:54;100939.09;;;18.48;47.76
44825;BME280;30542;47.928;2.138;2023-04-08T02:55:54;100943.63;;;18.47;47.67
44825;BME280;30542;47.928;2.138;2023-04-08T03:00:55;100937.47;;;18.47;48.14
44825;BME280;30542;47.928;2.138;2023-04-08T03:05:56;100941.41;;;18.44;47.97
44825;BME280;30542;47.928;2.138;2023-04-08T03:10:56;100937.94;;;18.44;47.98
44825;BME280;30542;47.928;2.138;2023-04-08T03:15:57;100951.75;;;18.41;47.78
44825;BME280;30542;47.928;2.138;2023-04-08T03:20:57;100944.00;;;18.39;48.10
44825;BME280;30542;47.928;2.138;2023-04-08T03:25:57;100943.19;;;18.38;48.05
44825;BME280;30542;47.928;2.138;2023-04-08T03:30:58;100947.94;;;18.36;47.90
44825;BME280;30542;47.928;2.138;2023-04-08T03:35:59;100952.72;;;18.34;47.92
44825;BME280;30542;47.928;2.138;2023-04-08T03:41:00;100945.41;;;18.30;47.69
44825;BME280;30542;47.928;2.138;2023-04-08T03:46:00;100940.81;;;18.25;47.68
44825;BME280;30542;47.928;2.138;2023-04-08T03:51:00;100949.94;;;18.29;47.80
44825;BME280;30542;47.928;2.138;2023-04-08T03:56:01;100951.56;;;18.30;47.94
44825;BME280;30542;47.928;2.138;2023-04-08T04:01:02;100957.16;;;18.29;48.17
44825;BME280;30542;47.928;2.138;2023-04-08T04:06:03;100955.03;;;18.31;47.88
44825;BME280;30542;47.928;2.138;2023-04-08T04:11:03;100956.75;;;18.37;48.19
44825;BME280;30542;47.928;2.138;2023-04-08T04:16:04;100951.03;;;18.45;47.63
44825;BME280;30542;47.928;2.138;2023-04-08T04:21:05;100965.13;;;18.57;47.76
44825;BME280;30542;47.928;2.138;2023-04-08T04:26:10;100953.06;;;18.67;47.15
44825;BME280;30542;47.928;2.138;2023-04-08T04:31:19;100959.06;;;18.74;47.43
44825;BME280;30542;47.928;2.138;2023-04-08T04:36:25;100963.47;;;18.80;46.78
44825;BME280;30542;47.928;2.138;2023-04-08T04:41:25;100965.41;;;18.84;47.18
44825;BME280;30542;47.928;2.138;2023-04-08T04:46:26;100965.41;;;18.84;46.75
44825;BME280;30542;47.928;2.138;2023-04-08T04:51:26;100962.97;;;18.83;46.99
44825;BME280;30542;47.928;2.138;2023-04-08T04:56:27;100975.50;;;18.82;47.10
44825;BME280;30542;47.928;2.138;2023-04-08T05:01:27;100973.53;;;18.78;46.90
44825;BME280;30542;47.928;2.138;2023-04-08T05:06:28;100985.53;;;18.75;47.28
44825;BME280;30542;47.928;2.138;2023-04-08T05:11:29;100976.38;;;18.71;47.12
44825;BME280;30542;47.928;2.138;2023-04-08T05:16:29;100988.06;;;18.70;47.39
44825;BME280;30542;47.928;2.138;2023-04-08T05:21:30;100988.28;;;18.69;46.92
44825;BME280;30542;47.928;2.138;2023-04-08T05:26:31;100992.50;;;18.64;47.43
44825;BME280;30542;47.928;2.138;2023-04-08T05:31:32;100999.09;;;18.62;46.92
44825;BME280;30542;47.928;2.138;2023-04-08T05:36:32;101007.69;;;18.64;46.89
44825;BME280;30542;47.928;2.138;2023-04-08T05:41:32;101019.16;;;18.64;47.35
44825;BME280;30542;47.928;2.138;2023-04-08T05:46:33;101018.69;;;18.68;46.97
44825;BME280;30542;47.928;2.138;2023-04-08T05:51:33;101025.22;;;18.72;46.95
44825;BME280;30542;47.928;2.138;2023-04-08T05:56:33;101022.56;;;18.72;47.12
44825;BME280;30542;47.928;2.138;2023-04-08T06:01:34;101025.22;;;18.72;46.58
44825;BME280;30542;47.928;2.138;2023-04-08T06:06:37;101042.03;;;18.72;47.04
44825;BME280;30542;47.928;2.138;2023-04-08T06:11:37;101041.44;;;18.70;46.98
44825;BME280;30542;47.928;2.138;2023-04-08T06:16:38;101047.81;;;18.69;47.14
44825;BME280;30542;47.928;2.138;2023-04-08T06:21:38;101054.19;;;18.68;46.82
44825;BME280;30542;47.928;2.138;2023-04-08T06:26:38;101057.00;;;18.73;46.86
44825;BME280;30542;47.928;2.138;2023-04-08T06:31:39;101059.91;;;18.72;47.20
44825;BME280;30542;47.928;2.138;2023-04-08T06:36:39;101062.56;;;18.72;47.02
44825;BME280;30542;47.928;2.138;2023-04-08T06:41:39;101065.59;;;18.75;46.93
44825;BME280;30542;47.928;2.138;2023-04-08T06:46:40;101071.47;;;18.77;47.35
44825;BME280;30542;47.928;2.138;2023-04-08T06:51:40;101070.44;;;18.78;46.93
44825;BME280;30542;47.928;2.138;2023-04-08T06:56:41;101083.28;;;18.93;46.62
44825;BME280;30542;47.928;2.138;2023-04-08T07:01:41;101079.78;;;18.93;47.22
44825;BME280;30542;47.928;2.138;2023-04-08T07:06:41;101085.56;;;19.01;47.03
44825;BME280;30542;47.928;2.138;2023-04-08T07:11:42;101078.03;;;18.98;46.90
44825;BME280;30542;47.928;2.138;2023-04-08T07:16:42;101095.66;;;18.99;46.97
44825;BME280;30542;47.928;2.138;2023-04-08T07:21:42;101098.31;;;18.99;47.03
44825;BME280;30542;47.928;2.138;2023-04-08T07:26:43;101105.06;;;19.02;46.93
44825;BME280;30542;47.928;2.138;2023-04-08T07:31:43;101113.16;;;19.07;47.05
44825;BME280;30542;47.928;2.138;2023-04-08T07:36:44;101114.09;;;19.12;47.15
44825;BME280;30542;47.928;2.138;2023-04-08T07:41:44;101110.69;;;19.17;47.43
44825;BME280;30542;47.928;2.138;2023-04-08T07:46:45;101114.50;;;19.21;47.35
44825;BME280;30542;47.928;2.138;2023-04-08T07:51:48;101107.31;;;19.22;47.90
44825;BME280;30542;47.928;2.138;2023-04-08T07:56:48;101112.00;;;19.31;47.68
44825;BME280;30542;47.928;2.138;2023-04-08T08:01:49;101116.41;;;19.37;47.64
44825;BME280;30542;47.928;2.138;2023-04-08T08:06:49;101124.75;;;19.41;47.26
44825;BME280;30542;47.928;2.138;2023-04-08T08:11:49;101116.88;;;19.34;46.63
44825;BME280;30542;47.928;2.138;2023-04-08T08:16:50;101127.31;;;19.36;46.08
44825;BME280;30542;47.928;2.138;2023-04-08T08:21:50;101125.91;;;19.45;46.35
44825;BME280;30542;47.928;2.138;2023-04-08T08:26:51;101128.66;;;19.50;46.65
44825;BME280;30542;47.928;2.138;2023-04-08T08:31:51;101133.75;;;19.52;46.78
44825;BME280;30542;47.928;2.138;2023-04-08T08:36:51;101135.47;;;19.58;46.63
44825;BME280;30542;47.928;2.138;2023-04-08T08:41:52;101139.31;;;19.62;46.64
44825;BME280;30542;47.928;2.138;2023-04-08T08:46:52;101140.69;;;19.65;46.28
44825;BME280;30542;47.928;2.138;2023-04-08T08:51:54;101141.25;;;19.67;46.49
44825;BME280;30542;47.928;2.138;2023-04-08T08:56:54;101131.13;;;19.69;45.89
44825;BME280;30542;47.928;2.138;2023-04-08T09:01:55;101142.41;;;19.71;46.11
44825;BME280;30542;47.928;2.138;2023-04-08T09:07:09;101143.53;;;19.75;45.89
44825;BME280;30542;47.928;2.138;2023-04-08T09:12:10;101152.19;;;19.82;45.67
44825;BME280;30542;47.928;2.138;2023-04-08T09:17:10;101150.91;;;19.84;45.77
44825;BME280;30542;47.928;2.138;2023-04-08T09:22:12;101146.38;;;19.85;45.98
44825;BME280;30542;47.928;2.138;2023-04-08T09:27:13;101153.91;;;19.88;45.88
44825;BME280;30542;47.928;2.138;2023-04-08T09:32:13;101148.09;;;19.91;45.99
44825;BME280;30542;47.928;2.138;2023-04-08T09:37:13;101152.94;;;19.94;46.08
44825;BME280;30542;47.928;2.138;2023-04-08T09:42:14;101157.00;;;19.97;46.12
44825;BME280;30542;47.928;2.138;2023-04-08T09:47:18;101152.53;;;20.02;46.59
44825;BME280;30542;47.928;2.138;2023-04-08T09:52:29;101162.50;;;20.07;47.34
44825;BME280;30542;47.928;2.138;2023-04-08T09:58:02;101158.78;;;20.08;47.32
44825;BME280;30542;47.928;2.138;2023-04-08T10:08:07;101164.53;;;20.00;47.86
44825;BME280;30542;47.928;2.138;2023-04-08T10:13:08;101158.38;;;19.99;47.94
44825;BME280;30542;47.928;2.138;2023-04-08T10:23:10;101152.53;;;20.02;48.30
44825;BME280;30542;47.928;2.138;2023-04-08T10:33:18;101139.88;;;20.15;48.81
44825;BME280;30542;47.928;2.138;2023-04-08T10:38:20;101125.47;;;20.16;48.46
44825;BME280;30542;47.928;2.138;2023-04-08T10:43:21;101127.63;;;20.19;48.95
44825;BME280;30542;47.928;2.138;2023-04-08T10:48:23;101118.81;;;20.18;48.30
44825;BME280;30542;47.928;2.138;2023-04-08T10:58:32;101114.34;;;20.24;48.10
44825;BME280;30542;47.928;2.138;2023-04-08T11:03:33;101116.19;;;20.23;47.93
44825;BME280;30542;47.928;2.138;2023-04-08T11:08:35;101119.72;;;20.24;47.99
44825;BME280;30542;47.928;2.138;2023-04-08T11:13:43;101113.22;;;20.20;48.20
44825;BME280;30542;47.928;2.138;2023-04-08T11:18:44;101112.91;;;20.16;48.38
44825;BME280;30542;47.928;2.138;2023-04-08T11:23:48;101100.56;;;20.15;48.43
44825;BME280;30542;47.928;2.138;2023-04-08T11:28:48;101106.16;;;20.14;48.84
44825;BME280;30542;47.928;2.138;2023-04-08T11:33:52;101107.78;;;20.15;48.66
44825;BME280;30542;47.928;2.138;2023-04-08T11:38:53;101099.84;;;20.20;48.80
44825;BME280;30542;47.928;2.138;2023-04-08T11:43:55;101097.41;;;20.18;48.84
44825;BME280;30542;47.928;2.138;2023-04-08T11:49:00;101095.72;;;20.12;49.01
44825;BME280;30542;47.928;2.138;2023-04-08T11:54:04;101092.00;;;20.13;49.13
44825;BME280;30542;47.928;2.138;2023-04-08T11:59:08;101087.69;;;20.12;48.80
44825;BME280;30542;47.928;2.138;2023-04-08T12:04:09;101087.38;;;20.08;49.88
44825;BME280;30542;47.928;2.138;2023-04-08T12:09:10;101084.94;;;20.07;49.86
44825;BME280;30542;47.928;2.138;2023-04-08T12:14:10;101080.91;;;20.04;49.58
44825;BME280;30542;47.928;2.138;2023-04-08T12:19:10;101077.91;;;20.01;49.76
44825;BME280;30542;47.928;2.138;2023-04-08T12:24:11;101081.88;;;19.98;49.37
44825;BME280;30542;47.928;2.138;2023-04-08T12:29:11;101079.19;;;19.98;49.26
44825;BME280;30542;47.928;2.138;2023-04-08T12:34:11;101078.38;;;19.98;49.44
44825;BME280;30542;47.928;2.138;2023-04-08T12:39:13;101067.94;;;19.96;49.29
44825;BME280;30542;47.928;2.138;2023-04-08T12:44:13;101064.69;;;19.94;49.09
44825;BME280;30542;47.928;2.138;2023-04-08T12:49:14;101063.09;;;19.93;49.99
44825;BME280;30542;47.928;2.138;2023-04-08T12:54:14;101060.66;;;19.92;49.34
44825;BME280;30542;47.928;2.138;2023-04-08T12:59:15;101068.91;;;19.90;49.20
44825;BME280;30542;47.928;2.138;2023-04-08T13:04:16;101053.94;;;19.89;48.89
44825;BME280;30542;47.928;2.138;2023-04-08T13:09:16;101052.56;;;19.86;48.92
44825;BME280;30542;47.928;2.138;2023-04-08T13:14:17;101053.88;;;19.84;48.82
44825;BME280;30542;47.928;2.138;2023-04-08T13:19:17;101056.78;;;19.82;49.15
44825;BME280;30542;47.928;2.138;2023-04-08T13:24:18;101053.53;;;19.80;49.08
44825;BME280;30542;47.928;2.138;2023-04-08T13:29:18;101047.38;;;19.80;48.75
44825;BME280;30542;47.928;2.138;2023-04-08T13:34:18;101036.94;;;19.78;49.12
44825;BME280;30542;47.928;2.138;2023-04-08T13:39:19;101035.31;;;19.77;48.81
44825;BME280;30542;47.928;2.138;2023-04-08T13:44:19;101036.13;;;19.78;48.89
44825;BME280;30542;47.928;2.138;2023-04-08T13:49:20;101036.38;;;19.76;48.72
44825;BME280;30542;47.928;2.138;2023-04-08T13:54:20;101032.88;;;19.76;49.20
44825;BME280;30542;47.928;2.138;2023-04-08T13:59:20;101033.94;;;19.75;49.72
44825;BME280;30542;47.928;2.138;2023-04-08T14:04:21;101030.22;;;19.76;50.02
44825;BME280;30542;47.928;2.138;2023-04-08T14:09:22;101021.13;;;19.77;50.48
44825;BME280;30542;47.928;2.138;2023-04-08T14:14:23;101011.75;;;19.74;50.25
44825;BME280;30542;47.928;2.138;2023-04-08T14:19:23;101032.72;;;19.82;50.42
44825;BME280;30542;47.928;2.138;2023-04-08T14:24:24;101027.88;;;19.79;50.52
44825;BME280;30542;47.928;2.138;2023-04-08T14:29:24;101018.25;;;19.78;50.69
44825;BME280;30542;47.928;2.138;2023-04-08T14:34:25;101019.03;;;19.79;50.59
44825;BME280;30542;47.928;2.138;2023-04-08T14:39:25;101012.06;;;19.78;50.50
44825;BME280;30542;47.928;2.138;2023-04-08T14:44:26;101013.13;;;19.77;50.64
44825;BME280;30542;47.928;2.138;2023-04-08T14:49:27;101010.44;;;19.77;50.28
44825;BME280;30542;47.928;2.138;2023-04-08T14:54:27;101007.56;;;19.78;50.66
44825;BME280;30542;47.928;2.138;2023-04-08T14:59:27;100993.94;;;19.80;50.45
44825;BME280;30542;47.928;2.138;2023-04-08T15:04:28;100991.25;;;19.80;50.38
44825;BME280;30542;47.928;2.138;2023-04-08T15:09:28;100989.88;;;19.77;50.60
44825;BME280;30542;47.928;2.138;2023-04-08T15:14:28;100996.84;;;19.78;50.60
44825;BME280;30542;47.928;2.138;2023-04-08T15:19:28;100998.69;;;19.78;50.28
44825;BME280;30542;47.928;2.138;2023-04-08T15:24:29;100989.06;;;19.77;50.41
44825;BME280;30542;47.928;2.138;2023-04-08T15:29:29;100989.06;;;19.77;50.48
44825;BME280;30542;47.928;2.138;2023-04-08T15:34:30;100988.00;;;19.78;50.58
44825;BME280;30542;47.928;2.138;2023-04-08T15:39:30;100988.25;;;19.76;50.69
44825;BME280;30542;47.928;2.138;2023-04-08T15:44:31;100998.94;;;19.76;50.42
44825;BME280;30542;47.928;2.138;2023-04-08T15:49:31;101002.44;;;19.77;50.59
44825;BME280;30542;47.928;2.138;2023-04-08T15:54:35;101000.00;;;19.75;50.64
44825;BME280;30542;47.928;2.138;2023-04-08T15:59:35;101003.41;;;19.71;50.93
44825;BME280;30542;47.928;2.138;2023-04-08T16:04:36;100993.47;;;19.66;50.46
44825;BME280;30542;47.928;2.138;2023-04-08T16:09:36;100988.59;;;19.63;50.90
44825;BME280;30542;47.928;2.138;2023-04-08T16:14:36;100991.50;;;19.61;50.56
44825;BME280;30542;47.928;2.138;2023-04-08T16:19:37;100995.19;;;19.60;50.70
44825;BME280;30542;47.928;2.138;2023-04-08T16:24:37;100988.25;;;19.59;50.47
44825;BME280;30542;47.928;2.138;2023-04-08T16:29:37;100991.28;;;19.63;50.62
44825;BME280;30542;47.928;2.138;2023-04-08T16:34:38;100984.88;;;19.64;50.50
44825;BME280;30542;47.928;2.138;2023-04-08T16:39:38;100995.56;;;19.64;50.42
44825;BME280;30542;47.928;2.138;2023-04-08T16:44:38;101000.44;;;19.67;50.40
44825;BME280;30542;47.928;2.138;2023-04-08T16:49:39;100992.63;;;19.66;51.18
44825;BME280;30542;47.928;2.138;2023-04-08T16:54:39;100993.75;;;19.70;52.03
44825;BME280;30542;47.928;2.138;2023-04-08T16:59:39;100990.53;;;19.68;52.79
44825;BME280;30542;47.928;2.138;2023-04-08T17:04:41;100995.56;;;19.64;53.07
44825;BME280;30542;47.928;2.138;2023-04-08T17:09:41;100994.41;;;19.60;53.21
44825;BME280;30542;47.928;2.138;2023-04-08T17:14:41;101005.34;;;19.58;52.92
44825;BME280;30542;47.928;2.138;2023-04-08T17:19:42;101004.22;;;19.54;52.94
44825;BME280;30542;47.928;2.138;2023-04-08T17:24:43;101005.81;;;19.55;52.64
44825;BME280;30542;47.928;2.138;2023-04-08T17:29:44;101009.97;;;19.63;53.75
44825;BME280;30542;47.928;2.138;2023-04-08T17:34:45;101014.00;;;19.66;55.49
44825;BME280;30542;47.928;2.138;2023-04-08T17:39:45;101005.78;;;19.67;54.53
44825;BME280;30542;47.928;2.138;2023-04-08T17:44:46;101004.16;;;19.66;54.82
44825;BME280;30542;47.928;2.138;2023-04-08T17:49:47;101006.25;;;19.64;55.20
44825;BME280;30542;47.928;2.138;2023-04-08T17:54:47;101009.97;;;19.63;54.91
44825;BME280;30542;47.928;2.138;2023-04-08T17:59:47;101016.59;;;19.60;54.69
44825;BME280;30542;47.928;2.138;2023-04-08T18:04:48;101005.91;;;19.60;54.47
44825;BME280;30542;47.928;2.138;2023-04-08T18:09:49;101002.41;;;19.60;53.92
44825;BME280;30542;47.928;2.138;2023-04-08T18:14:49;101002.66;;;19.58;54.08
44825;BME280;30542;47.928;2.138;2023-04-08T18:19:50;101004.75;;;19.56;53.85
44825;BME280;30542;47.928;2.138;2023-04-08T18:24:50;101010.63;;;19.53;53.53
44825;BME280;30542;47.928;2.138;2023-04-08T18:29:50;101005.50;;;19.52;53.13
44825;BME280;30542;47.928;2.138;2023-04-08T18:34:52;101001.47;;;19.49;53.28
44825;BME280;30542;47.928;2.138;2023-04-08T18:39:53;101007.28;;;19.46;52.54
44825;BME280;30542;47.928;2.138;2023-04-08T18:44:53;101014.81;;;19.49;52.21
44825;BME280;30542;47.928;2.138;2023-04-08T18:49:53;101018.53;;;19.48;51.92
44825;BME280;30542;47.928;2.138;2023-04-08T18:54:55;101021.47;;;19.47;51.83
44825;BME280;30542;47.928;2.138;2023-04-08T18:59:55;101035.06;;;19.45;51.66
44825;BME280;30542;47.928;2.138;2023-04-08T19:04:56;101028.41;;;19.48;51.78
44825;BME280;30542;47.928;2.138;2023-04-08T19:09:57;101026.00;;;19.46;51.48
44825;BME280;30542;47.928;2.138;2023-04-08T19:15:00;101045.75;;;19.45;51.71
44825;BME280;30542;47.928;2.138;2023-04-08T19:20:03;101040.41;;;19.45;51.26
44825;BME280;30542;47.928;2.138;2023-04-08T19:25:03;101050.50;;;19.43;51.23
44825;BME280;30542;47.928;2.138;2023-04-08T19:30:05;101056.09;;;19.42;51.20
44825;BME280;30542;47.928;2.138;2023-04-08T19:35:06;101059.59;;;19.42;51.27
44825;BME280;30542;47.928;2.138;2023-04-08T19:40:07;101063.53;;;19.40;51.23
44825;BME280;30542;47.928;2.138;2023-04-08T19:45:08;101069.34;;;19.36;51.26
44825;BME280;30542;47.928;2.138;2023-04-08T19:50:10;101070.19;;;19.37;51.07
44825;BME280;30542;47.928;2.138;2023-04-08T19:55:11;101077.16;;;19.38;50.73
44825;BME280;30542;47.928;2.138;2023-04-08T20:00:11;101080.88;;;19.37;51.04
44825;BME280;30542;47.928;2.138;2023-04-08T20:05:12;101082.72;;;19.36;51.07
44825;BME280;30542;47.928;2.138;2023-04-08T20:10:13;101084.56;;;19.36;50.84
44825;BME280;30542;47.928;2.138;2023-04-08T20:15:14;101076.16;;;19.27;50.99
44825;BME280;30542;47.928;2.138;2023-04-08T20:20:14;101093.09;;;19.33;50.88
44825;BME280;30542;47.928;2.138;2023-04-08T20:25:15;101095.75;;;19.33;51.03
44825;BME280;30542;47.928;2.138;2023-04-08T20:30:16;101093.09;;;19.33;50.74
44825;BME280;30542;47.928;2.138;2023-04-08T20:35:17;101084.25;;;19.32;50.63
44825;BME280;30542;47.928;2.138;2023-04-08T20:40:17;101083.44;;;19.32;50.96
44825;BME280;30542;47.928;2.138;2023-04-08T20:45:18;101081.81;;;19.31;50.54
44825;BME280;30542;47.928;2.138;2023-04-08T20:50:18;101093.09;;;19.33;50.66
44825;BME280;30542;47.928;2.138;2023-04-08T20:55:19;101086.69;;;19.34;50.72
44825;BME280;30542;47.928;2.138;2023-04-08T21:00:19;101089.38;;;19.34;50.73
44825;BME280;30542;47.928;2.138;2023-04-08T21:05:20;101082.41;;;19.33;50.62
44825;BME280;30542;47.928;2.138;2023-04-08T21:10:20;101077.28;;;19.31;50.54
44825;BME280;30542;47.928;2.138;2023-04-08T21:15:20;101082.88;;;19.30;50.15
44825;BME280;30542;47.928;2.138;2023-04-08T21:20:21;101076.72;;;19.29;50.38
44825;BME280;30542;47.928;2.138;2023-04-08T21:25:21;101072.41;;;19.28;50.00
44825;BME280;30542;47.928;2.138;2023-04-08T21:30:22;101072.66;;;19.27;50.39
44825;BME280;30542;47.928;2.138;2023-04-08T21:35:22;101064.91;;;19.25;50.26
44825;BME280;30542;47.928;2.138;2023-04-08T21:40:22;101068.63;;;19.24;50.36
44825;BME280;30542;47.928;2.138;2023-04-08T21:45:23;101060.28;;;19.21;50.19
44825;BME280;30542;47.928;2.138;2023-04-08T21:50:23;101069.34;;;19.20;49.93
44825;BME280;30542;47.928;2.138;2023-04-08T21:55:24;101064.00;;;19.20;49.92
44825;BME280;30542;47.928;2.138;2023-04-08T22:00:24;101077.34;;;19.20;50.20
44825;BME280;30542;47.928;2.138;2023-04-08T22:05:25;101076.78;;;19.18;50.10
44825;BME280;30542;47.928;2.138;2023-04-08T22:10:25;101084.22;;;19.16;49.91
44825;BME280;30542;47.928;2.138;2023-04-08T22:15:26;101078.31;;;19.13;49.85
44825;BME280;30542;47.928;2.138;2023-04-08T22:20:27;101083.91;;;19.12;49.76
44825;BME280;30542;47.928;2.138;2023-04-08T22:25:27;101072.88;;;19.08;49.93
44825;BME280;30542;47.928;2.138;2023-04-08T22:30:28;101074.75;;;19.08;49.96
44825;BME280;30542;47.928;2.138;2023-04-08T22:35:29;101076.28;;;19.04;49.97
44825;BME280;30542;47.928;2.138;2023-04-08T22:40:29;101078.44;;;19.07;49.93
44825;BME280;30542;47.928;2.138;2023-04-08T22:45:29;101086.13;;;19.03;49.63
44825;BME280;30542;47.928;2.138;2023-04-08T22:50:30;101076.50;;;19.02;49.84
44825;BME280;30542;47.928;2.138;2023-04-08T22:55:31;101068.28;;;19.04;49.69
44825;BME280;30542;47.928;2.138;2023-04-08T23:00:31;101056.53;;;19.05;49.82
44825;BME280;30542;47.928;2.138;2023-04-08T23:05:31;101059.13;;;19.00;49.80
44825;BME280;30542;47.928;2.138;2023-04-08T23:10:32;101060.47;;;19.02;49.53
44825;BME280;30542;47.928;2.138;2023-04-08T23:15:32;101047.13;;;19.02;49.58
44825;BME280;30542;47.928;2.138;2023-04-08T23:20:32;101056.19;;;19.01;49.76
44825;BME280;30542;47.928;2.138;2023-04-08T23:25:34;101047.59;;;18.99;49.89
44825;BME280;30542;47.928;2.138;2023-04-08T23:30:36;101045.53;;;19.01;49.57
44825;BME280;30542;47.928;2.138;2023-04-08T23:35:38;101047.59;;;18.99;49.38
44825;BME280;30542;47.928;2.138;2023-04-08T23:40:38;101044.38;;;18.97;49.43
44825;BME280;30542;47.928;2.138;2023-04-08T23:45:38;101044.63;;;18.96;49.30
44825;BME280;30542;47.928;2.138;2023-04-08T23:50:39;101037.88;;;18.93;49.56
44825;BME280;30542;47.928;2.138;2023-04-08T23:55:39;101040.81;;;18.92;49.13
